Time;durP1;ratioP1;P1;durP2;ratioP2;P2;SDS_P1;SDS_P2;PMS_P1;PMS_P2;Temp;Humidity;BMP_temperature;BMP_pressure;BME280_temperature;BME280_humidity;BME280_pressure;Samples;Min_cycle;Max_cycle;Signal;HPM_P1;HPM_P2
2022/05/10 00:02:55;;;;;;;8.02;6.72;;;;;;;;;;6327668;28;20039;-86
2022/05/10 00:05:57;;;;;;;9.05;6.50;;;;;;;;;;6315512;28;20071;-86
2022/05/10 00:09:00;;;;;;;8.23;5.93;;;;;;;;;;6286921;28;20146;-84
2022/05/10 00:12:03;;;;;;;8.07;6.20;;;;;;;;;;6293916;28;20044;-83
2022/05/10 00:15:06;;;;;;;7.38;6.43;;;;;;;;;;6262491;28;20045;-86
2022/05/10 00:18:13;;;;;;;9.05;6.88;;;;;;;;;;6304768;28;20520;-85
2022/05/10 00:21:19;;;;;;;9.20;7.05;;;;;;;;;;6302252;28;20056;-84
2022/05/10 00:24:20;;;;;;;9.38;6.40;;;;;;;;;;6302330;28;20040;-85
2022/05/10 00:27:22;;;;;;;7.80;6.60;;;;;;;;;;6315778;28;20056;-85
2022/05/10 00:30:24;;;;;;;7.85;6.22;;;;;;;;;;6328261;28;20108;-85
2022/05/10 00:33:28;;;;;;;8.60;6.40;;;;;;;;;;6317213;28;20060;-86
2022/05/10 00:36:30;;;;;;;9.82;7.03;;;;;;;;;;6294323;28;20125;-85
2022/05/10 00:39:32;;;;;;;9.68;6.72;;;;;;;;;;6278023;28;20040;-84
2022/05/10 00:42:50;;;;;;;8.00;6.93;;;;;;;;;;6294454;28;20044;-84
2022/05/10 00:45:55;;;;;;;8.82;6.65;;;;;;;;;;6311772;28;20056;-85
2022/05/10 00:49:12;;;;;;;9.48;6.65;;;;;;;;;;6285551;28;20057;-84
2022/05/10 00:52:23;;;;;;;7.78;6.47;;;;;;;;;;6253186;28;20133;-85
2022/05/10 00:55:38;;;;;;;7.78;6.40;;;;;;;;;;6288308;28;20068;-84
2022/05/10 00:58:50;;;;;;;8.95;6.72;;;;;;;;;;6294946;28;20839;-85
2022/05/10 01:02:01;;;;;;;9.63;6.80;;;;;;;;;;6294079;28;20109;-86
2022/05/10 01:05:25;;;;;;;9.27;6.80;;;;;;;;;;6293748;28;20055;-85
2022/05/10 01:08:29;;;;;;;;;;;;;;;;;;6295725;28;20032;-85
2022/05/10 01:11:47;;;;;;;8.40;6.45;;;;;;;;;;6297565;28;19920;-83
2022/05/10 01:15:19;;;;;;;9.80;6.50;;;;;;;;;;6314810;28;20045;-85
2022/05/10 01:18:22;;;;;;;8.40;6.72;;;;;;;;;;6277658;28;20052;-85
2022/05/10 01:21:51;;;;;;;8.63;6.30;;;;;;;;;;6297874;28;20104;-85
2022/05/10 01:25:07;;;;;;;9.55;6.53;;;;;;;;;;6318391;28;20431;-84
2022/05/10 01:28:30;;;;;;;10.48;7.07;;;;;;;;;;6308498;28;20485;-84
2022/05/10 01:33:29;;;;;;;8.77;6.53;;;;;;;;;;6297159;28;20055;-82
2022/05/10 01:35:19;;;;;;;7.95;6.13;;;;;;;;;;6274526;28;20049;-84
2022/05/10 01:38:25;;;;;;;8.93;6.88;;;;;;;;;;6287022;28;20048;-85
2022/05/10 01:41:45;;;;;;;8.68;6.35;;;;;;;;;;6299169;28;20041;-85
2022/05/10 01:44:58;;;;;;;13.02;7.20;;;;;;;;;;6277491;28;20122;-84
2022/05/10 01:48:02;;;;;;;9.60;7.28;;;;;;;;;;6284324;28;20067;-85
2022/05/10 01:51:15;;;;;;;8.55;6.18;;;;;;;;;;6272438;28;20044;-85
2022/05/10 01:55:01;;;;;;;9.23;6.85;;;;;;;;;;6274761;28;20176;-85
2022/05/10 01:58:12;;;;;;;10.20;7.38;;;;;;;;;;6290148;28;20084;-85
2022/05/10 02:01:17;;;;;;;9.45;7.38;;;;;;;;;;6275196;28;20060;-85
2022/05/10 02:04:25;;;;;;;9.60;7.25;;;;;;;;;;6296176;28;20064;-83
2022/05/10 02:07:30;;;;;;;8.90;6.72;;;;;;;;;;6298842;28;20052;-85
2022/05/10 02:10:38;;;;;;;8.20;6.65;;;;;;;;;;6299375;28;20194;-86
2022/05/10 02:13:55;;;;;;;9.00;6.72;;;;;;;;;;6305614;28;20064;-85
2022/05/10 02:17:16;;;;;;;8.32;7.13;;;;;;;;;;6299378;28;20053;-85
2022/05/10 02:20:33;;;;;;;7.97;6.88;;;;;;;;;;6315048;28;20051;-85
2022/05/10 02:23:58;;;;;;;9.05;7.32;;;;;;;;;;6305444;28;20047;-86
2022/05/10 02:27:17;;;;;;;8.88;6.60;;;;;;;;;;6323297;28;20039;-85
2022/05/10 02:30:22;;;;;;;8.55;6.88;;;;;;;;;;6295384;28;20093;-84
2022/05/10 02:33:24;;;;;;;11.00;7.30;;;;;;;;;;6296929;28;20048;-86
2022/05/10 02:36:26;;;;;;;10.05;6.93;;;;;;;;;;6296936;28;20063;-85
2022/05/10 02:39:28;;;;;;;8.63;6.72;;;;;;;;;;6297193;28;20071;-85
2022/05/10 02:42:30;;;;;;;12.48;7.40;;;;;;;;;;6313228;28;20090;-86
2022/05/10 02:45:33;;;;;;;9.63;7.05;;;;;;;;;;6298420;28;20049;-85
2022/05/10 02:48:36;;;;;;;8.65;7.05;;;;;;;;;;6306265;28;20045;-86
2022/05/10 02:51:37;;;;;;;;;;;;;;;;;;6264079;28;20064;-85
2022/05/10 02:54:39;;;;;;;10.07;7.20;;;;;;;;;;6289730;28;19929;-86
2022/05/10 02:57:42;;;;;;;10.88;7.78;;;;;;;;;;6280271;28;20037;-85
2022/05/10 03:00:44;;;;;;;10.13;7.32;;;;;;;;;;6297668;28;20045;-87
2022/05/10 03:03:47;;;;;;;11.00;7.80;;;;;;;;;;6288560;28;20041;-84
2022/05/10 03:06:49;;;;;;;10.10;7.38;;;;;;;;;;6301739;28;20021;-85
2022/05/10 03:09:51;;;;;;;10.93;7.88;;;;;;;;;;6284970;28;20029;-87
2022/05/10 03:12:53;;;;;;;10.13;7.53;;;;;;;;;;6308416;28;20090;-87
2022/05/10 03:15:55;;;;;;;9.80;7.88;;;;;;;;;;6311340;28;20040;-86
2022/05/10 03:18:56;;;;;;;11.35;8.40;;;;;;;;;;6329148;28;20031;-86
2022/05/10 03:21:58;;;;;;;10.70;7.93;;;;;;;;;;6323643;28;20113;-87
2022/05/10 03:24:59;;;;;;;10.50;7.97;;;;;;;;;;6301569;28;20054;-86
2022/05/10 03:28:03;;;;;;;11.98;8.07;;;;;;;;;;6318169;28;20104;-86
2022/05/10 03:31:07;;;;;;;12.68;8.77;;;;;;;;;;6299128;28;20059;-87
2022/05/10 03:37:31;;;;;;;9.52;6.97;;;;;;;;;;6342427;28;20126;-85
2022/05/10 03:40:33;;;;;;;10.27;7.30;;;;;;;;;;6340250;28;20024;-86
2022/05/10 03:43:35;;;;;;;9.75;6.82;;;;;;;;;;6325108;28;20060;-86
2022/05/10 03:46:37;;;;;;;9.48;7.25;;;;;;;;;;6311228;28;20051;-86
2022/05/10 03:49:38;;;;;;;8.82;7.07;;;;;;;;;;6267170;28;20557;-85
2022/05/10 03:52:41;;;;;;;9.60;7.55;;;;;;;;;;6282305;28;20053;-84
2022/05/10 03:55:43;;;;;;;10.45;7.28;;;;;;;;;;6309628;28;20045;-85
2022/05/10 03:58:44;;;;;;;11.55;7.43;;;;;;;;;;6315707;28;20382;-85
2022/05/10 04:01:47;;;;;;;11.35;7.43;;;;;;;;;;6291496;28;20059;-85
2022/05/10 04:04:52;;;;;;;11.95;8.52;;;;;;;;;;6325604;28;20041;-85
2022/05/10 04:07:54;;;;;;;11.55;7.88;;;;;;;;;;6323252;28;20055;-83
2022/05/10 04:11:01;;;;;;;10.20;7.65;;;;;;;;;;6311945;28;20032;-82
2022/05/10 04:14:08;;;;;;;11.10;7.50;;;;;;;;;;6288483;28;20045;-81
2022/05/10 04:17:10;;;;;;;9.30;7.32;;;;;;;;;;6314293;28;20054;-82
2022/05/10 04:20:14;;;;;;;9.90;7.55;;;;;;;;;;6337686;28;20039;-82
2022/05/10 04:23:16;;;;;;;10.45;7.75;;;;;;;;;;6342790;28;20024;-83
2022/05/10 04:26:39;;;;;;;9.85;8.13;;;;;;;;;;6328696;28;20103;-81
2022/05/10 04:29:42;;;;;;;13.18;8.30;;;;;;;;;;6303631;28;20495;-81
2022/05/10 04:32:44;;;;;;;9.75;7.65;;;;;;;;;;6301448;28;20044;-82
2022/05/10 04:35:45;;;;;;;11.77;8.32;;;;;;;;;;6302596;28;20094;-81
2022/05/10 04:38:48;;;;;;;12.43;8.20;;;;;;;;;;6304075;28;20040;-81
2022/05/10 04:41:53;;;;;;;11.95;8.82;;;;;;;;;;6301286;28;20137;-82
2022/05/10 04:44:54;;;;;;;11.07;8.07;;;;;;;;;;6301002;28;20069;-81
2022/05/10 04:47:59;;;;;;;14.93;8.80;;;;;;;;;;6300842;28;20052;-82
2022/05/10 04:51:02;;;;;;;9.80;7.85;;;;;;;;;;6300746;28;20185;-82
2022/05/10 04:54:05;;;;;;;10.50;7.53;;;;;;;;;;6303468;28;20109;-81
2022/05/10 04:57:07;;;;;;;8.90;7.30;;;;;;;;;;6309425;28;20508;-82
2022/05/10 05:00:13;;;;;;;9.95;7.95;;;;;;;;;;6328708;28;20070;-82
2022/05/10 05:03:14;;;;;;;11.80;8.32;;;;;;;;;;6329104;28;20558;-82
2022/05/10 05:06:17;;;;;;;14.05;8.57;;;;;;;;;;6331478;28;20060;-82
2022/05/10 05:09:18;;;;;;;11.63;8.47;;;;;;;;;;6331298;28;20047;-82
2022/05/10 05:12:20;;;;;;;11.93;8.20;;;;;;;;;;6318041;28;20052;-81
2022/05/10 05:15:22;;;;;;;11.55;7.55;;;;;;;;;;6329513;28;20032;-82
2022/05/10 05:18:23;;;;;;;11.43;7.20;;;;;;;;;;6343113;28;20089;-83
2022/05/10 05:21:25;;;;;;;9.52;7.47;;;;;;;;;;6352712;28;20113;-82
2022/05/10 05:24:27;;;;;;;8.38;7.32;;;;;;;;;;6355142;28;20096;-82
2022/05/10 05:27:29;;;;;;;10.57;7.85;;;;;;;;;;6310761;28;20109;-81
2022/05/10 05:30:31;;;;;;;12.35;8.27;;;;;;;;;;6303651;28;20102;-81
2022/05/10 05:33:32;;;;;;;10.23;7.78;;;;;;;;;;6333709;28;20043;-82
2022/05/10 05:36:34;;;;;;;10.55;7.90;;;;;;;;;;6318962;28;20071;-82
2022/05/10 05:39:36;;;;;;;8.85;7.55;;;;;;;;;;6306924;28;20056;-82
2022/05/10 05:42:38;;;;;;;10.25;7.88;;;;;;;;;;6323711;28;20112;-82
2022/05/10 05:45:39;;;;;;;10.50;7.80;;;;;;;;;;6352834;28;20617;-82
2022/05/10 05:48:42;;;;;;;9.57;8.25;;;;;;;;;;6328074;28;20036;-82
2022/05/10 05:51:44;;;;;;;11.93;8.13;;;;;;;;;;6326902;28;20048;-83
2022/05/10 05:54:46;;;;;;;8.18;7.22;;;;;;;;;;6312476;28;20040;-81
2022/05/10 05:57:48;;;;;;;8.93;7.55;;;;;;;;;;6354867;28;20165;-82
2022/05/10 06:00:50;;;;;;;10.05;8.43;;;;;;;;;;6352677;28;20044;-81
2022/05/10 06:03:55;;;;;;;9.30;8.32;;;;;;;;;;6315579;28;20040;-82
2022/05/10 06:07:00;;;;;;;14.50;9.18;;;;;;;;;;6328041;28;20047;-84
2022/05/10 06:10:03;;;;;;;13.25;9.18;;;;;;;;;;6307924;28;20048;-84
2022/05/10 06:13:05;;;;;;;13.18;8.60;;;;;;;;;;6327132;28;20473;-82
2022/05/10 06:16:08;;;;;;;14.80;9.07;;;;;;;;;;6309180;28;20756;-83
2022/05/10 06:19:13;;;;;;;10.13;7.85;;;;;;;;;;6326370;28;20048;-84
2022/05/10 06:22:14;;;;;;;9.38;7.57;;;;;;;;;;6310265;28;20078;-82
2022/05/10 06:25:20;;;;;;;9.93;7.40;;;;;;;;;;6330209;28;20051;-82
2022/05/10 06:28:22;;;;;;;11.65;7.57;;;;;;;;;;6334789;28;20056;-81
2022/05/10 06:31:24;;;;;;;10.68;7.55;;;;;;;;;;6336851;28;20049;-82
2022/05/10 06:34:26;;;;;;;10.80;7.68;;;;;;;;;;6299695;28;20513;-82
2022/05/10 06:40:48;;;;;;;9.65;7.50;;;;;;;;;;6300819;28;20041;-81
2022/05/10 06:43:50;;;;;;;8.32;7.35;;;;;;;;;;6300474;28;20037;-81
2022/05/10 06:46:59;;;;;;;9.18;7.55;;;;;;;;;;6311748;28;20048;-81
2022/05/10 06:50:00;;;;;;;10.75;7.85;;;;;;;;;;6302313;28;20059;-83
2022/05/10 06:53:03;;;;;;;10.40;7.88;;;;;;;;;;6317771;28;20056;-81
2022/05/10 06:56:06;;;;;;;10.37;8.10;;;;;;;;;;6303762;28;20048;-83
2022/05/10 06:59:08;;;;;;;12.07;8.48;;;;;;;;;;6322928;28;20468;-84
2022/05/10 07:02:09;;;;;;;11.32;7.75;;;;;;;;;;6316985;28;20059;-82
2022/05/10 07:05:14;;;;;;;10.63;7.90;;;;;;;;;;6299374;28;20041;-83
2022/05/10 07:08:16;;;;;;;12.18;7.85;;;;;;;;;;6298212;28;20052;-83
2022/05/10 07:11:18;;;;;;;11.77;7.18;;;;;;;;;;6296348;28;20052;-83
2022/05/10 07:14:20;;;;;;;12.35;7.13;;;;;;;;;;6298331;28;20044;-84
2022/05/10 07:17:22;;;;;;;8.70;7.15;;;;;;;;;;6295421;28;20057;-85
2022/05/10 07:20:23;;;;;;;11.27;6.45;;;;;;;;;;6323333;28;20052;-85
2022/05/10 07:23:29;;;;;;;8.45;5.93;;;;;;;;;;6296900;28;20102;-83
2022/05/10 07:26:40;;;;;;;8.30;6.05;;;;;;;;;;6290691;28;20059;-84
2022/05/10 07:29:43;;;;;;;6.75;5.97;;;;;;;;;;6298778;28;20098;-85
2022/05/10 07:32:45;;;;;;;6.80;5.85;;;;;;;;;;6293793;28;20044;-83
2022/05/10 07:39:10;;;;;;;6.75;5.75;;;;;;;;;;6295389;28;20128;-86
2022/05/10 07:42:11;;;;;;;6.57;5.63;;;;;;;;;;6317675;28;20072;-83
2022/05/10 07:45:15;;;;;;;8.88;6.32;;;;;;;;;;6323155;28;20055;-82
2022/05/10 07:48:17;;;;;;;8.88;6.18;;;;;;;;;;6292450;28;20063;-83
2022/05/10 07:51:21;;;;;;;8.43;5.85;;;;;;;;;;6319558;28;20059;-82
2022/05/10 07:54:24;;;;;;;6.63;5.57;;;;;;;;;;6321872;28;20044;-82
2022/05/10 07:57:26;;;;;;;7.30;5.95;;;;;;;;;;6327403;28;20048;-83
2022/05/10 08:00:27;;;;;;;6.28;5.60;;;;;;;;;;6318116;28;20137;-85
2022/05/10 08:03:30;;;;;;;11.10;6.20;;;;;;;;;;6284898;28;20086;-83
2022/05/10 08:06:32;;;;;;;6.38;5.20;;;;;;;;;;6302751;28;20045;-82
2022/05/10 08:09:33;;;;;;;7.40;5.88;;;;;;;;;;6301823;28;20044;-81
2022/05/10 08:12:35;;;;;;;7.45;5.40;;;;;;;;;;6301273;28;20040;-83
2022/05/10 08:15:39;;;;;;;7.15;5.05;;;;;;;;;;6301161;28;20040;-83
2022/05/10 08:18:41;;;;;;;6.45;5.50;;;;;;;;;;6293829;28;20033;-85
2022/05/10 08:21:43;;;;;;;7.63;5.20;;;;;;;;;;6296243;28;20052;-85
2022/05/10 08:24:45;;;;;;;6.30;5.38;;;;;;;;;;6266081;28;20044;-85
2022/05/10 08:27:46;;;;;;;5.53;5.03;;;;;;;;;;6299358;28;20082;-86
2022/05/10 08:30:48;;;;;;;5.93;5.30;;;;;;;;;;6299388;28;20247;-83
2022/05/10 08:33:50;;;;;;;6.70;5.13;;;;;;;;;;6301753;28;20044;-84
2022/05/10 08:36:52;;;;;;;6.18;5.20;;;;;;;;;;6317872;28;20040;-80
2022/05/10 08:39:53;;;;;;;6.05;5.07;;;;;;;;;;6318514;28;20510;-80
2022/05/10 08:43:01;;;;;;;6.35;4.95;;;;;;;;;;6333694;28;20040;-80
2022/05/10 08:46:06;;;;;;;7.32;4.97;;;;;;;;;;6340087;28;20048;-80
2022/05/10 08:49:18;;;;;;;5.57;4.70;;;;;;;;;;6321957;28;20130;-81
2022/05/10 08:52:26;;;;;;;6.38;4.97;;;;;;;;;;6343417;28;20051;-81
2022/05/10 08:55:31;;;;;;;4.85;4.45;;;;;;;;;;6344778;28;20122;-81
2022/05/10 08:58:43;;;;;;;4.97;4.55;;;;;;;;;;6343491;28;20496;-80
2022/05/10 09:02:14;;;;;;;7.63;4.82;;;;;;;;;;6324627;28;20051;-80
2022/05/10 09:05:24;;;;;;;5.57;5.05;;;;;;;;;;6318911;28;20040;-81
2022/05/10 09:08:41;;;;;;;6.07;5.18;;;;;;;;;;6321096;28;20223;-80
2022/05/10 09:12:05;;;;;;;6.32;4.82;;;;;;;;;;6317805;28;20118;-80
2022/05/10 09:15:09;;;;;;;;;;;;;;;;;;6320591;28;20068;-80
2022/05/10 09:18:22;;;;;;;6.88;5.07;;;;;;;;;;6325633;28;19920;-80
2022/05/10 09:21:33;;;;;;;8.05;4.53;;;;;;;;;;6342728;28;20081;-80
2022/05/10 09:24:52;;;;;;;5.63;5.03;;;;;;;;;;6325966;28;20036;-80
2022/05/10 09:27:54;;;;;;;7.10;5.00;;;;;;;;;;6319347;28;20202;-80
2022/05/10 09:35:18;;;;;;;5.72;4.55;;;;;;;;;;6291399;28;20048;-81
2022/05/10 09:38:20;;;;;;;6.55;4.95;;;;;;;;;;6295937;28;20055;-80
2022/05/10 09:41:36;;;;;;;5.28;4.88;;;;;;;;;;6312435;28;20059;-80
2022/05/10 09:44:38;;;;;;;6.65;4.80;;;;;;;;;;6315040;28;20170;-79
2022/05/10 09:47:54;;;;;;;5.47;4.63;;;;;;;;;;6313591;28;20108;-80
2022/05/10 09:50:56;;;;;;;13.30;5.15;;;;;;;;;;6313772;28;20351;-80
2022/05/10 09:53:57;;;;;;;5.40;4.70;;;;;;;;;;6314775;28;20060;-79
2022/05/10 09:56:59;;;;;;;5.63;5.03;;;;;;;;;;6313911;28;20177;-81
2022/05/10 10:00:03;;;;;;;5.67;4.93;;;;;;;;;;6316595;28;20416;-79
2022/05/10 10:03:28;;;;;;;5.45;4.57;;;;;;;;;;6315536;28;20040;-80
2022/05/10 10:06:29;;;;;;;4.90;4.40;;;;;;;;;;6317776;28;20078;-80
2022/05/10 10:09:33;;;;;;;6.27;4.40;;;;;;;;;;6316410;28;20169;-80
2022/05/10 10:12:42;;;;;;;6.22;4.43;;;;;;;;;;6296958;28;20055;-80
2022/05/10 10:15:43;;;;;;;5.40;4.53;;;;;;;;;;6317252;28;20147;-80
2022/05/10 10:18:51;;;;;;;4.95;4.43;;;;;;;;;;6333333;28;20093;-80
2022/05/10 10:21:57;;;;;;;4.50;4.10;;;;;;;;;;6345436;28;20044;-81
2022/05/10 10:25:06;;;;;;;5.40;4.18;;;;;;;;;;6326577;28;20074;-82
2022/05/10 10:28:19;;;;;;;4.78;4.30;;;;;;;;;;6328586;28;20089;-81
2022/05/10 10:31:26;;;;;;;6.10;4.22;;;;;;;;;;6346826;28;20093;-81
2022/05/10 10:34:40;;;;;;;5.22;4.45;;;;;;;;;;6322461;28;20100;-81
2022/05/10 10:38:24;;;;;;;5.28;4.78;;;;;;;;;;6321527;28;20508;-81
2022/05/10 10:41:44;;;;;;;5.30;4.80;;;;;;;;;;6328300;28;20036;-81
2022/05/10 10:44:55;;;;;;;5.13;4.60;;;;;;;;;;6344743;28;20039;-81
2022/05/10 10:48:03;;;;;;;5.95;4.97;;;;;;;;;;6332136;28;20100;-81
2022/05/10 10:51:08;;;;;;;5.05;4.57;;;;;;;;;;6341259;28;20051;-82
2022/05/10 10:54:36;;;;;;;5.00;4.50;;;;;;;;;;6344137;28;20100;-82
2022/05/10 10:57:57;;;;;;;5.70;5.20;;;;;;;;;;6290146;28;20121;-82
2022/05/10 11:01:01;;;;;;;5.07;4.57;;;;;;;;;;6313548;28;20056;-80
2022/05/10 11:04:41;;;;;;;6.50;4.78;;;;;;;;;;6314604;28;20055;-79
2022/05/10 11:07:59;;;;;;;5.47;4.72;;;;;;;;;;6315142;28;20103;-79
2022/05/10 11:11:00;;;;;;;5.28;4.88;;;;;;;;;;6314713;28;20689;-80
2022/05/10 11:14:07;;;;;;;7.43;4.87;;;;;;;;;;6314954;28;20064;-79
2022/05/10 11:17:50;;;;;;;5.05;4.55;;;;;;;;;;6312688;28;20093;-80
2022/05/10 11:20:55;;;;;;;;;;;;;;;;;;6296346;28;20055;-81
2022/05/10 11:24:17;;;;;;;4.90;4.50;;;;;;;;;;6314966;28;19927;-79
2022/05/10 11:27:39;;;;;;;5.55;5.05;;;;;;;;;;6314164;28;20191;-80
2022/05/10 11:31:02;;;;;;;6.13;4.95;;;;;;;;;;6313513;28;20126;-80
2022/05/10 11:34:04;;;;;;;5.50;5.00;;;;;;;;;;6293104;28;20044;-79
2022/05/10 11:37:12;;;;;;;6.35;4.97;;;;;;;;;;6299898;28;20072;-80
2022/05/10 11:40:37;;;;;;;5.78;5.22;;;;;;;;;;6313673;28;20116;-80
2022/05/10 11:43:54;;;;;;;7.35;5.00;;;;;;;;;;6295332;28;20046;-80
2022/05/10 11:47:17;;;;;;;5.80;5.20;;;;;;;;;;6316579;28;20091;-80
2022/05/10 11:50:27;;;;;;;5.32;4.85;;;;;;;;;;6339626;28;20075;-79
2022/05/10 11:54:03;;;;;;;5.25;4.75;;;;;;;;;;6322777;28;20136;-79
2022/05/10 11:57:15;;;;;;;5.05;4.63;;;;;;;;;;6317904;28;20501;-79
2022/05/10 12:00:26;;;;;;;5.20;4.70;;;;;;;;;;6314504;28;20085;-81
2022/05/10 12:03:37;;;;;;;5.38;4.88;;;;;;;;;;6312094;28;20127;-80
2022/05/10 12:06:42;;;;;;;5.50;5.00;;;;;;;;;;6313302;28;20043;-80
2022/05/10 12:10:06;;;;;;;5.68;5.18;;;;;;;;;;6312395;28;20040;-79
2022/05/10 12:13:10;;;;;;;5.28;4.78;;;;;;;;;;6273665;28;20609;-80
2022/05/10 12:23:10;;;;;;;5.55;5.03;;;;;;;;;;6290400;28;20044;-80
2022/05/10 12:26:36;;;;;;;5.37;4.93;;;;;;;;;;6272777;28;20420;-79
2022/05/10 12:29:37;;;;;;;6.72;4.95;;;;;;;;;;6288850;28;20458;-80
2022/05/10 12:32:42;;;;;;;5.13;4.63;;;;;;;;;;6297038;28;20051;-80
2022/05/10 12:35:44;;;;;;;5.25;4.75;;;;;;;;;;6313680;28;20066;-80
2022/05/10 12:38:49;;;;;;;5.80;4.57;;;;;;;;;;6314186;28;20040;-80
2022/05/10 12:42:00;;;;;;;4.60;4.20;;;;;;;;;;6309351;28;20076;-79
2022/05/10 12:45:13;;;;;;;5.07;4.05;;;;;;;;;;6301886;28;20159;-80
2022/05/10 12:48:58;;;;;;;5.75;4.53;;;;;;;;;;6315840;28;20047;-79
2022/05/10 12:52:22;;;;;;;5.03;4.63;;;;;;;;;;6315416;28;20047;-80
2022/05/10 12:55:32;;;;;;;4.95;4.55;;;;;;;;;;6318005;28;20047;-79
2022/05/10 12:58:41;;;;;;;6.38;4.70;;;;;;;;;;6314236;28;20051;-79
2022/05/10 13:01:43;;;;;;;5.45;4.80;;;;;;;;;;6317206;28;20447;-79
2022/05/10 13:04:52;;;;;;;5.20;4.80;;;;;;;;;;6301206;28;20051;-79
2022/05/10 13:08:45;;;;;;;4.95;4.45;;;;;;;;;;6318547;28;20047;-78
2022/05/10 13:12:19;;;;;;;4.90;4.40;;;;;;;;;;6299888;28;20040;-78
2022/05/10 13:15:22;;;;;;;5.70;4.47;;;;;;;;;;6318483;28;20052;-79
2022/05/10 13:18:26;;;;;;;4.80;4.40;;;;;;;;;;6317257;28;20115;-80
2022/05/10 13:21:30;;;;;;;4.90;4.43;;;;;;;;;;6317123;28;20164;-78
2022/05/10 13:24:32;;;;;;;5.18;4.63;;;;;;;;;;6318231;28;20096;-78
2022/05/10 13:27:36;;;;;;;5.60;4.65;;;;;;;;;;6317510;28;20100;-78
2022/05/10 13:30:40;;;;;;;10.73;5.28;;;;;;;;;;6315287;28;20120;-80
2022/05/10 13:33:42;;;;;;;5.07;4.13;;;;;;;;;;6317195;28;20111;-81
2022/05/10 13:36:50;;;;;;;4.93;4.18;;;;;;;;;;6317159;28;20072;-80
2022/05/10 13:39:52;;;;;;;5.20;4.70;;;;;;;;;;6314863;28;20074;-83
2022/05/10 13:42:58;;;;;;;4.82;4.30;;;;;;;;;;6291736;28;20183;-80
2022/05/10 13:46:09;;;;;;;5.18;4.40;;;;;;;;;;6293194;28;20519;-79
2022/05/10 13:49:21;;;;;;;5.47;4.30;;;;;;;;;;6293498;28;20060;-80
2022/05/10 13:52:32;;;;;;;6.90;4.50;;;;;;;;;;6292272;28;20071;-80
2022/05/10 13:55:37;;;;;;;5.38;4.40;;;;;;;;;;6306457;28;20123;-79
2022/05/10 13:58:42;;;;;;;6.70;4.30;;;;;;;;;;6293571;28;20052;-81
2022/05/10 14:01:49;;;;;;;4.18;3.88;;;;;;;;;;6291384;28;20049;-80
2022/05/10 14:04:52;;;;;;;4.85;4.35;;;;;;;;;;6284836;28;20040;-80
2022/05/10 14:07:59;;;;;;;4.82;4.43;;;;;;;;;;6292823;28;20302;-80
2022/05/10 14:11:11;;;;;;;4.20;3.85;;;;;;;;;;6286878;28;20675;-80
2022/05/10 14:14:15;;;;;;;4.53;4.13;;;;;;;;;;6290717;28;20121;-81
2022/05/10 14:17:17;;;;;;;4.82;4.32;;;;;;;;;;6294407;28;20125;-79
2022/05/10 14:20:24;;;;;;;4.65;4.30;;;;;;;;;;6290485;28;20126;-79
2022/05/10 14:23:34;;;;;;;4.82;4.28;;;;;;;;;;6290076;28;20098;-79
2022/05/10 14:26:35;;;;;;;4.88;4.10;;;;;;;;;;6279878;28;20048;-80
2022/05/10 14:29:43;;;;;;;4.27;3.70;;;;;;;;;;6291035;28;20075;-79
2022/05/10 14:32:45;;;;;;;4.50;4.10;;;;;;;;;;6291272;28;20726;-79
2022/05/10 14:36:01;;;;;;;4.22;3.92;;;;;;;;;;6290208;28;20127;-79
2022/05/10 14:39:07;;;;;;;4.38;3.97;;;;;;;;;;6290209;28;20044;-79
2022/05/10 14:42:52;;;;;;;4.60;4.20;;;;;;;;;;6302904;28;20044;-79
2022/05/10 14:46:00;;;;;;;4.78;3.97;;;;;;;;;;6261424;28;20450;-80
2022/05/10 14:49:07;;;;;;;5.05;4.18;;;;;;;;;;6293307;28;20052;-81
2022/05/10 14:52:31;;;;;;;5.10;4.40;;;;;;;;;;6292508;28;20067;-82
2022/05/10 14:55:33;;;;;;;5.15;4.10;;;;;;;;;;6294149;28;20059;-81
2022/05/10 14:58:43;;;;;;;4.90;4.40;;;;;;;;;;6293447;28;20052;-80
2022/05/10 15:01:45;;;;;;;4.85;4.38;;;;;;;;;;6292973;28;20663;-81
2022/05/10 15:04:46;;;;;;;4.80;4.37;;;;;;;;;;6270552;28;20049;-79
2022/05/10 15:07:48;;;;;;;4.40;4.03;;;;;;;;;;6268238;28;20102;-79
2022/05/10 15:10:59;;;;;;;4.78;4.38;;;;;;;;;;6273029;28;20044;-79
2022/05/10 15:14:03;;;;;;;4.95;4.45;;;;;;;;;;6318499;28;20117;-80
2022/05/10 15:17:13;;;;;;;4.55;4.10;;;;;;;;;;6296482;28;20729;-81
2022/05/10 15:20:17;;;;;;;4.80;4.40;;;;;;;;;;6290142;28;20387;-80
2022/05/10 15:23:18;;;;;;;5.47;4.03;;;;;;;;;;6292740;28;20055;-80
2022/05/10 15:26:32;;;;;;;5.53;4.72;;;;;;;;;;6296913;28;20470;-80
2022/05/10 15:29:38;;;;;;;4.70;4.30;;;;;;;;;;6317733;28;20501;-79
2022/05/10 15:32:43;;;;;;;4.75;4.35;;;;;;;;;;6302899;28;20597;-79
2022/05/10 15:35:44;;;;;;;4.95;4.45;;;;;;;;;;6285554;28;20068;-79
2022/05/10 15:38:52;;;;;;;6.57;4.38;;;;;;;;;;6286436;28;20044;-79
2022/05/10 15:41:54;;;;;;;4.95;4.45;;;;;;;;;;6281279;28;20078;-79
2022/05/10 15:44:56;;;;;;;4.45;4.05;;;;;;;;;;6279083;28;20053;-75
2022/05/10 15:47:59;;;;;;;6.07;4.10;;;;;;;;;;6280010;28;20045;-76
2022/05/10 15:51:00;;;;;;;;;;;;;;;;;;6274799;28;20131;-76
2022/05/10 15:54:02;;;;;;;5.47;4.00;;;;;;;;;;6273824;28;19995;-77
2022/05/10 15:57:24;;;;;;;4.55;4.18;;;;;;;;;;6277823;28;20494;-77
2022/05/10 16:00:26;;;;;;;5.28;4.22;;;;;;;;;;6277142;28;20048;-78
2022/05/10 16:03:29;;;;;;;;;;;;;;;;;;6291430;28;20052;-78
2022/05/10 16:06:31;;;;;;;6.13;4.10;;;;;;;;;;6306713;28;20066;-77
2022/05/10 16:09:33;;;;;;;4.53;4.13;;;;;;;;;;6301093;28;20143;-76
2022/05/10 16:12:36;;;;;;;4.00;3.60;;;;;;;;;;6285648;28;20132;-77
2022/05/10 16:15:39;;;;;;;3.92;3.60;;;;;;;;;;6276986;28;20047;-76
2022/05/10 16:18:41;;;;;;;4.10;3.65;;;;;;;;;;6279852;28;20082;-77
2022/05/10 16:21:44;;;;;;;5.72;3.90;;;;;;;;;;6280302;28;20048;-77
2022/05/10 16:24:45;;;;;;;4.43;3.60;;;;;;;;;;6283348;28;20198;-77
2022/05/10 16:31:07;;;;;;;5.50;3.90;;;;;;;;;;6312204;28;20185;-76
2022/05/10 16:34:10;;;;;;;3.70;3.37;;;;;;;;;;6314667;28;20055;-78
2022/05/10 16:37:12;;;;;;;3.67;3.20;;;;;;;;;;6301621;28;20124;-80
2022/05/10 16:40:14;;;;;;;4.10;3.70;;;;;;;;;;6291392;28;20079;-77
2022/05/10 16:43:17;;;;;;;4.30;3.63;;;;;;;;;;6282817;28;20049;-79
2022/05/10 16:46:20;;;;;;;4.10;3.60;;;;;;;;;;6294273;28;20099;-77
2022/05/10 16:49:21;;;;;;;5.43;3.90;;;;;;;;;;6317544;28;20055;-76
2022/05/10 16:52:23;;;;;;;3.95;3.60;;;;;;;;;;6312674;28;20051;-79
2022/05/10 16:55:25;;;;;;;7.50;4.00;;;;;;;;;;6318889;28;20181;-79
2022/05/10 16:58:27;;;;;;;6.95;5.18;;;;;;;;;;6340198;28;20051;-78
2022/05/10 17:01:30;;;;;;;6.80;3.97;;;;;;;;;;6341924;28;20569;-77
2022/05/10 17:04:34;;;;;;;3.90;3.60;;;;;;;;;;6317751;28;20044;-77
2022/05/10 17:07:37;;;;;;;4.45;4.05;;;;;;;;;;6299846;28;20126;-77
2022/05/10 17:10:39;;;;;;;5.03;4.00;;;;;;;;;;6312841;28;20119;-78
2022/05/10 17:13:41;;;;;;;4.82;3.92;;;;;;;;;;6291332;28;20053;-76
2022/05/10 17:16:44;;;;;;;5.40;3.97;;;;;;;;;;6305177;28;20050;-75
2022/05/10 17:19:46;;;;;;;4.60;4.20;;;;;;;;;;6309171;28;20051;-78
2022/05/10 17:22:51;;;;;;;4.73;4.00;;;;;;;;;;6311560;28;20501;-78
2022/05/10 17:25:53;;;;;;;6.97;4.50;;;;;;;;;;6313145;28;20529;-77
2022/05/10 17:32:00;;;;;;;4.35;3.97;;;;;;;;;;6307237;28;20049;-78
2022/05/10 17:35:08;;;;;;;4.70;4.28;;;;;;;;;;6310540;28;20040;-77
2022/05/10 17:38:10;;;;;;;4.97;4.50;;;;;;;;;;6306815;28;20386;-77
2022/05/10 17:41:12;;;;;;;4.68;4.10;;;;;;;;;;6296591;28;20075;-78
2022/05/10 17:44:13;;;;;;;4.85;4.18;;;;;;;;;;6292810;28;20048;-79
2022/05/10 17:47:15;;;;;;;6.65;4.38;;;;;;;;;;6306645;28;20153;-77
2022/05/10 17:50:17;;;;;;;5.78;4.60;;;;;;;;;;6306004;28;20112;-77
2022/05/10 17:53:18;;;;;;;6.03;4.63;;;;;;;;;;6310272;28;20184;-78
2022/05/10 17:56:27;;;;;;;5.72;4.55;;;;;;;;;;6306518;28;20060;-77
2022/05/10 17:59:28;;;;;;;7.78;4.35;;;;;;;;;;6309046;28;20140;-78
2022/05/10 18:02:35;;;;;;;6.50;5.10;;;;;;;;;;6307808;28;20047;-78
2022/05/10 18:05:37;;;;;;;4.95;4.47;;;;;;;;;;6310005;28;20432;-79
2022/05/10 18:08:40;;;;;;;5.60;4.93;;;;;;;;;;6284515;28;20064;-79
2022/05/10 18:11:41;;;;;;;6.28;4.72;;;;;;;;;;6307664;28;20093;-78
2022/05/10 18:14:43;;;;;;;6.35;5.35;;;;;;;;;;6304078;28;20120;-77
2022/05/10 18:17:45;;;;;;;5.50;4.85;;;;;;;;;;6300245;28;20044;-78
2022/05/10 18:20:53;;;;;;;5.38;4.88;;;;;;;;;;6308278;28;20043;-78
2022/05/10 18:23:57;;;;;;;4.93;4.45;;;;;;;;;;6289285;28;20159;-78
2022/05/10 18:27:03;;;;;;;5.78;5.18;;;;;;;;;;6289909;28;20111;-78
2022/05/10 18:30:06;;;;;;;5.68;5.00;;;;;;;;;;6284410;28;20178;-78
2022/05/10 18:33:08;;;;;;;5.32;4.35;;;;;;;;;;6307944;28;20100;-78
2022/05/10 18:36:09;;;;;;;7.88;5.15;;;;;;;;;;6287374;28;20174;-77
2022/05/10 18:39:13;;;;;;;;;;;;;;;;;;6287755;28;20411;-79
2022/05/10 18:42:14;;;;;;;6.38;4.90;;;;;;;;;;6291212;28;20026;-79
2022/05/10 18:45:17;;;;;;;5.67;5.10;;;;;;;;;;6311897;28;20048;-78
2022/05/10 18:48:19;;;;;;;5.72;5.13;;;;;;;;;;6300774;28;20090;-78
2022/05/10 18:51:21;;;;;;;5.40;4.73;;;;;;;;;;6312619;28;20074;-80
2022/05/10 18:54:23;;;;;;;6.72;5.40;;;;;;;;;;6298506;28;20067;-79
2022/05/10 18:57:25;;;;;;;10.05;5.68;;;;;;;;;;6292957;28;20440;-80
2022/05/10 19:00:29;;;;;;;10.48;5.80;;;;;;;;;;6310149;28;20147;-78
2022/05/10 19:03:30;;;;;;;6.55;5.35;;;;;;;;;;6290544;28;20186;-78
2022/05/10 19:06:32;;;;;;;7.25;5.50;;;;;;;;;;6288364;28;20135;-78
2022/05/10 19:09:34;;;;;;;6.38;5.25;;;;;;;;;;6284664;28;20099;-78